sensor_id;sensor_type;location;lat;lon;timestamp;pressure;altitude;pressure_sealevel;temperature;humidity
26823;BME280;14852;51.910;8.878;2022-11-20T00:01:25;99473.72;;;-1.82;59.79
26823;BME280;14852;51.910;8.878;2022-11-20T00:03:53;99467.78;;;-1.84;59.99
26823;BME280;14852;51.910;8.878;2022-11-20T00:06:21;99467.00;;;-1.89;60.09
26823;BME280;14852;51.910;8.878;2022-11-20T00:08:48;99466.16;;;-1.92;59.82
26823;BME280;14852;51.910;8.878;2022-11-20T00:11:20;99467.88;;;-1.96;60.01
26823;BME280;14852;51.910;8.878;2022-11-20T00:13:50;99462.81;;;-1.99;59.83
26823;BME280;14852;51.910;8.878;2022-11-20T00:16:21;99464.53;;;-2.01;60.08
26823;BME280;14852;51.910;8.878;2022-11-20T00:18:48;99466.22;;;-2.04;60.03
26823;BME280;14852;51.910;8.878;2022-11-20T00:21:20;99467.94;;;-2.06;60.13
26823;BME280;14852;51.910;8.878;2022-11-20T00:23:47;99465.44;;;-2.08;60.16
26823;BME280;14852;51.910;8.878;2022-11-20T00:26:18;99456.09;;;-2.09;60.01
26823;BME280;14852;51.910;8.878;2022-11-20T00:28:53;99457.78;;;-2.09;59.89
26823;BME280;14852;51.910;8.878;2022-11-20T00:31:19;99460.34;;;-2.12;60.21
26823;BME280;14852;51.910;8.878;2022-11-20T00:33:46;99449.31;;;-2.14;60.15
26823;BME280;14852;51.910;8.878;2022-11-20T00:36:16;99452.72;;;-2.15;60.25
26823;BME280;14852;51.910;8.878;2022-11-20T00:38:42;99453.59;;;-2.18;60.00
26823;BME280;14852;51.910;8.878;2022-11-20T00:41:13;99449.34;;;-2.19;60.18
26823;BME280;14852;51.910;8.878;2022-11-20T00:43:39;99446.00;;;-2.23;60.12
26823;BME280;14852;51.910;8.878;2022-11-20T00:46:15;99445.16;;;-2.25;60.09
26823;BME280;14852;51.910;8.878;2022-11-20T00:48:42;99450.25;;;-2.28;60.31
26823;BME280;14852;51.910;8.878;2022-11-20T00:51:08;99447.72;;;-2.28;60.23
26823;BME280;14852;51.910;8.878;2022-11-20T00:53:38;99451.09;;;-2.27;60.37
26823;BME280;14852;51.910;8.878;2022-11-20T00:56:09;99446.84;;;-2.24;60.17
26823;BME280;14852;51.910;8.878;2022-11-20T00:58:37;99437.50;;;-2.20;60.24
26823;BME280;14852;51.910;8.878;2022-11-20T01:01:08;99439.16;;;-2.16;60.20
26823;BME280;14852;51.910;8.878;2022-11-20T01:03:38;99438.28;;;-2.12;60.21
26823;BME280;14852;51.910;8.878;2022-11-20T01:06:14;99439.97;;;-2.11;60.10
26823;BME280;14852;51.910;8.878;2022-11-20T01:08:40;99441.69;;;-2.10;60.00
26823;BME280;14852;51.910;8.878;2022-11-20T01:11:11;99439.94;;;-2.06;60.14
26823;BME280;14852;51.910;8.878;2022-11-20T01:13:38;99442.47;;;-2.05;60.06
26823;BME280;14852;51.910;8.878;2022-11-20T01:16:16;99434.81;;;-2.02;60.01
26823;BME280;14852;51.910;8.878;2022-11-20T01:18:45;99435.69;;;-2.03;60.25
26823;BME280;14852;51.910;8.878;2022-11-20T01:21:16;99444.16;;;-2.05;60.12
26823;BME280;14852;51.910;8.878;2022-11-20T01:23:43;99436.59;;;-2.08;60.17
26823;BME280;14852;51.910;8.878;2022-11-20T01:26:13;99436.59;;;-2.13;60.05
26823;BME280;14852;51.910;8.878;2022-11-20T01:28:41;99432.38;;;-2.19;60.25
26823;BME280;14852;51.910;8.878;2022-11-20T01:31:34;99430.72;;;-2.23;60.39
26823;BME280;14852;51.910;8.878;2022-11-20T01:34:06;99441.78;;;-2.27;60.41
26823;BME280;14852;51.910;8.878;2022-11-20T01:36:34;99427.34;;;-2.29;60.26
26823;BME280;14852;51.910;8.878;2022-11-20T01:39:16;99432.44;;;-2.29;60.35
26823;BME280;14852;51.910;8.878;2022-11-20T01:41:44;99431.59;;;-2.30;60.23
26823;BME280;14852;51.910;8.878;2022-11-20T01:44:52;99425.66;;;-2.29;60.31
26823;BME280;14852;51.910;8.878;2022-11-20T01:47:43;99423.13;;;-2.30;60.35
26823;BME280;14852;51.910;8.878;2022-11-20T01:50:23;99420.63;;;-2.32;60.36
26823;BME280;14852;51.910;8.878;2022-11-20T01:52:55;99415.53;;;-2.32;60.32
26823;BME280;14852;51.910;8.878;2022-11-20T01:55:28;99425.69;;;-2.32;60.03
26823;BME280;14852;51.910;8.878;2022-11-20T01:57:55;99428.25;;;-2.36;60.12
26823;BME280;14852;51.910;8.878;2022-11-20T02:00:22;99424.88;;;-2.38;60.28
26823;BME280;14852;51.910;8.878;2022-11-20T02:02:53;99421.47;;;-2.39;60.36
26823;BME280;14852;51.910;8.878;2022-11-20T02:07:57;99418.94;;;-2.40;60.33
26823;BME280;14852;51.910;8.878;2022-11-20T02:10:26;99418.09;;;-2.39;60.28
26823;BME280;14852;51.910;8.878;2022-11-20T02:12:53;99413.00;;;-2.36;60.39
26823;BME280;14852;51.910;8.878;2022-11-20T02:15:37;99416.38;;;-2.36;60.41
26823;BME280;14852;51.910;8.878;2022-11-20T02:18:05;99408.75;;;-2.40;60.34
26823;BME280;14852;51.910;8.878;2022-11-20T02:20:31;99413.91;;;-2.45;60.23
26823;BME280;14852;51.910;8.878;2022-11-20T02:23:12;99407.13;;;-2.47;60.43
26823;BME280;14852;51.910;8.878;2022-11-20T02:25:42;99406.28;;;-2.52;60.53
26823;BME280;14852;51.910;8.878;2022-11-20T02:28:08;99400.41;;;-2.54;60.36
26823;BME280;14852;51.910;8.878;2022-11-20T02:30:35;99392.78;;;-2.59;60.39
26823;BME280;14852;51.910;8.878;2022-11-20T02:33:01;99398.72;;;-2.62;60.44
26823;BME280;14852;51.910;8.878;2022-11-20T02:37:55;99386.84;;;-2.60;60.68
26823;BME280;14852;51.910;8.878;2022-11-20T02:40:22;99391.06;;;-2.59;60.31
26823;BME280;14852;51.910;8.878;2022-11-20T02:42:51;99389.38;;;-2.58;60.39
26823;BME280;14852;51.910;8.878;2022-11-20T02:48:43;99384.31;;;-2.63;60.28
26823;BME280;14852;51.910;8.878;2022-11-20T02:51:08;99380.06;;;-2.64;60.30
26823;BME280;14852;51.910;8.878;2022-11-20T02:53:34;99380.91;;;-2.63;60.43
26823;BME280;14852;51.910;8.878;2022-11-20T02:56:00;99379.22;;;-2.64;60.59
26823;BME280;14852;51.910;8.878;2022-11-20T02:58:26;99376.69;;;-2.63;60.37
26823;BME280;14852;51.910;8.878;2022-11-20T03:00:52;99372.44;;;-2.62;60.41
26823;BME280;14852;51.910;8.878;2022-11-20T03:03:18;99359.72;;;-2.61;60.25
26823;BME280;14852;51.910;8.878;2022-11-20T03:05:43;99363.97;;;-2.61;60.29
26823;BME280;14852;51.910;8.878;2022-11-20T03:08:09;99359.72;;;-2.61;60.64
26823;BME280;14852;51.910;8.878;2022-11-20T03:10:40;99360.56;;;-2.59;60.49
26823;BME280;14852;51.910;8.878;2022-11-20T03:13:06;99363.09;;;-2.60;60.51
26823;BME280;14852;51.910;8.878;2022-11-20T03:15:32;99362.25;;;-2.62;60.39
26823;BME280;14852;51.910;8.878;2022-11-20T03:17:57;99352.94;;;-2.65;60.35
26823;BME280;14852;51.910;8.878;2022-11-20T03:20:23;99357.19;;;-2.65;60.64
26823;BME280;14852;51.910;8.878;2022-11-20T03:22:49;99350.41;;;-2.63;60.57
26823;BME280;14852;51.910;8.878;2022-11-20T03:25:15;99343.63;;;-2.63;60.56
26823;BME280;14852;51.910;8.878;2022-11-20T03:27:41;99351.25;;;-2.61;60.28
26823;BME280;14852;51.910;8.878;2022-11-20T03:30:08;99348.69;;;-2.61;60.54
26823;BME280;14852;51.910;8.878;2022-11-20T03:32:34;99346.16;;;-2.61;60.62
26823;BME280;14852;51.910;8.878;2022-11-20T03:35:00;99336.84;;;-2.62;60.62
26823;BME280;14852;51.910;8.878;2022-11-20T03:37:25;99344.47;;;-2.62;60.61
26823;BME280;14852;51.910;8.878;2022-11-20T03:39:51;99341.91;;;-2.64;60.51
26823;BME280;14852;51.910;8.878;2022-11-20T03:42:17;99348.72;;;-2.64;60.68
26823;BME280;14852;51.910;8.878;2022-11-20T03:45:01;99350.44;;;-2.68;60.71
26823;BME280;14852;51.910;8.878;2022-11-20T03:47:27;99347.06;;;-2.71;60.79
26823;BME280;14852;51.910;8.878;2022-11-20T03:49:53;99347.94;;;-2.75;60.74
26823;BME280;14852;51.910;8.878;2022-11-20T03:52:18;99346.28;;;-2.79;60.85
26823;BME280;14852;51.910;8.878;2022-11-20T03:54:44;99336.09;;;-2.82;60.72
26823;BME280;14852;51.910;8.878;2022-11-20T03:57:10;99337.81;;;-2.86;61.12
26823;BME280;14852;51.910;8.878;2022-11-20T03:59:36;99334.44;;;-2.88;60.66
26823;BME280;14852;51.910;8.878;2022-11-20T04:02:01;99335.31;;;-2.89;60.86
26823;BME280;14852;51.910;8.878;2022-11-20T04:04:27;99340.41;;;-2.90;61.01
26823;BME280;14852;51.910;8.878;2022-11-20T04:06:53;99347.19;;;-2.89;60.91
26823;BME280;14852;51.910;8.878;2022-11-20T04:09:19;99343.78;;;-2.88;60.78
26823;BME280;14852;51.910;8.878;2022-11-20T04:11:44;99343.75;;;-2.87;60.76
26823;BME280;14852;51.910;8.878;2022-11-20T04:14:14;99352.22;;;-2.88;60.97
26823;BME280;14852;51.910;8.878;2022-11-20T04:16:41;99350.56;;;-2.89;60.89
26823;BME280;14852;51.910;8.878;2022-11-20T04:19:12;99351.41;;;-2.88;60.88
26823;BME280;14852;51.910;8.878;2022-11-20T04:21:38;99346.31;;;-2.88;61.02
26823;BME280;14852;51.910;8.878;2022-11-20T04:24:04;99348.88;;;-2.88;60.90
26823;BME280;14852;51.910;8.878;2022-11-20T04:26:31;99353.97;;;-2.92;60.82
26823;BME280;14852;51.910;8.878;2022-11-20T04:28:59;99354.81;;;-2.93;60.92
26823;BME280;14852;51.910;8.878;2022-11-20T04:31:29;99348.88;;;-2.96;60.88
26823;BME280;14852;51.910;8.878;2022-11-20T04:33:58;99338.75;;;-3.01;60.90
26823;BME280;14852;51.910;8.878;2022-11-20T04:36:26;99345.53;;;-3.01;60.87
26823;BME280;14852;51.910;8.878;2022-11-20T04:38:54;99351.47;;;-3.02;60.85
26823;BME280;14852;51.910;8.878;2022-11-20T04:41:23;99346.38;;;-3.01;61.04
26823;BME280;14852;51.910;8.878;2022-11-20T04:43:53;99342.16;;;-3.02;60.97
26823;BME280;14852;51.910;8.878;2022-11-20T04:46:20;99345.53;;;-3.03;60.89
26823;BME280;14852;51.910;8.878;2022-11-20T04:48:47;99346.38;;;-3.02;60.67
26823;BME280;14852;51.910;8.878;2022-11-20T04:51:13;99345.50;;;-3.00;60.70
26823;BME280;14852;51.910;8.878;2022-11-20T04:53:39;99344.69;;;-3.00;60.75
26823;BME280;14852;51.910;8.878;2022-11-20T04:56:08;99341.31;;;-3.01;60.67
26823;BME280;14852;51.910;8.878;2022-11-20T04:58:35;99340.41;;;-3.00;60.73
26823;BME280;14852;51.910;8.878;2022-11-20T05:01:23;99340.41;;;-2.98;60.86
26823;BME280;14852;51.910;8.878;2022-11-20T05:03:49;99333.63;;;-2.99;60.94
26823;BME280;14852;51.910;8.878;2022-11-20T05:06:18;99331.97;;;-3.00;60.99
26823;BME280;14852;51.910;8.878;2022-11-20T05:08:44;99330.28;;;-3.01;61.03
26823;BME280;14852;51.910;8.878;2022-11-20T05:11:20;99333.63;;;-2.99;61.02
26823;BME280;14852;51.910;8.878;2022-11-20T05:13:47;99342.16;;;-3.02;60.87
26823;BME280;14852;51.910;8.878;2022-11-20T05:16:20;99337.91;;;-3.04;60.70
26823;BME280;14852;51.910;8.878;2022-11-20T05:18:46;99341.31;;;-3.07;60.70
26823;BME280;14852;51.910;8.878;2022-11-20T05:21:13;99333.69;;;-3.08;60.93
26823;BME280;14852;51.910;8.878;2022-11-20T05:23:40;99335.41;;;-3.12;61.08
26823;BME280;14852;51.910;8.878;2022-11-20T05:26:11;99332.00;;;-3.11;61.08
26823;BME280;14852;51.910;8.878;2022-11-20T05:28:38;99336.22;;;-3.11;61.01
26823;BME280;14852;51.910;8.878;2022-11-20T05:31:13;99334.56;;;-3.12;61.02
26823;BME280;14852;51.910;8.878;2022-11-20T05:33:43;99334.56;;;-3.12;60.96
26823;BME280;14852;51.910;8.878;2022-11-20T05:36:12;99337.97;;;-3.13;60.94
26823;BME280;14852;51.910;8.878;2022-11-20T05:38:38;99343.91;;;-3.14;60.83
26823;BME280;14852;51.910;8.878;2022-11-20T05:41:10;99339.66;;;-3.15;61.06
26823;BME280;14852;51.910;8.878;2022-11-20T05:43:38;99338.81;;;-3.16;60.87
26823;BME280;14852;51.910;8.878;2022-11-20T05:46:06;99343.06;;;-3.18;61.00
26823;BME280;14852;51.910;8.878;2022-11-20T05:48:36;99337.97;;;-3.21;60.88
26823;BME280;14852;51.910;8.878;2022-11-20T05:51:04;99337.13;;;-3.21;60.65
26823;BME280;14852;51.910;8.878;2022-11-20T05:53:33;99334.59;;;-3.21;61.06
26823;BME280;14852;51.910;8.878;2022-11-20T05:56:07;99329.50;;;-3.21;60.93
26823;BME280;14852;51.910;8.878;2022-11-20T05:58:36;99334.59;;;-3.23;60.84
26823;BME280;14852;51.910;8.878;2022-11-20T06:03:36;99325.31;;;-3.27;60.73
26823;BME280;14852;51.910;8.878;2022-11-20T06:06:04;99331.25;;;-3.28;60.92
26823;BME280;14852;51.910;8.878;2022-11-20T06:08:30;99330.41;;;-3.30;61.05
26823;BME280;14852;51.910;8.878;2022-11-20T06:10:57;99330.41;;;-3.30;60.93
26823;BME280;14852;51.910;8.878;2022-11-20T06:13:23;99327.84;;;-3.32;61.05
26823;BME280;14852;51.910;8.878;2022-11-20T06:15:53;99328.69;;;-3.33;60.80
26823;BME280;14852;51.910;8.878;2022-11-20T06:18:19;99336.31;;;-3.33;61.19
26823;BME280;14852;51.910;8.878;2022-11-20T06:20:46;99328.69;;;-3.33;61.01
26823;BME280;14852;51.910;8.878;2022-11-20T06:23:12;99328.69;;;-3.33;60.91
26823;BME280;14852;51.910;8.878;2022-11-20T06:25:40;99334.63;;;-3.31;60.97
26823;BME280;14852;51.910;8.878;2022-11-20T06:28:06;99332.09;;;-3.29;61.08
26823;BME280;14852;51.910;8.878;2022-11-20T06:30:32;99334.63;;;-3.31;60.91
26823;BME280;14852;51.910;8.878;2022-11-20T06:32:58;99331.25;;;-3.33;60.87
26823;BME280;14852;51.910;8.878;2022-11-20T06:35:23;99332.97;;;-3.36;61.10
26823;BME280;14852;51.910;8.878;2022-11-20T06:37:49;99331.28;;;-3.39;61.00
26823;BME280;14852;51.910;8.878;2022-11-20T06:40:15;99323.66;;;-3.40;60.84
26823;BME280;14852;51.910;8.878;2022-11-20T06:42:41;99318.59;;;-3.40;61.07
26823;BME280;14852;51.910;8.878;2022-11-20T06:45:07;99319.44;;;-3.41;60.84
26823;BME280;14852;51.910;8.878;2022-11-20T06:47:33;99324.50;;;-3.46;61.03
26823;BME280;14852;51.910;8.878;2022-11-20T06:49:59;99320.31;;;-3.47;60.95
26823;BME280;14852;51.910;8.878;2022-11-20T06:52:25;99327.03;;;-3.46;60.89
26823;BME280;14852;51.910;8.878;2022-11-20T06:54:50;99322.84;;;-3.47;60.95
26823;BME280;14852;51.910;8.878;2022-11-20T06:57:16;99316.03;;;-3.45;61.08
26823;BME280;14852;51.910;8.878;2022-11-20T06:59:42;99316.03;;;-3.40;61.02
26823;BME280;14852;51.910;8.878;2022-11-20T07:02:10;99321.13;;;-3.36;60.86
26823;BME280;14852;51.910;8.878;2022-11-20T07:04:38;99315.16;;;-3.32;60.74
26823;BME280;14852;51.910;8.878;2022-11-20T07:07:04;99315.16;;;-3.25;60.78
26823;BME280;14852;51.910;8.878;2022-11-20T07:09:30;99325.25;;;-3.18;60.81
26823;BME280;14852;51.910;8.878;2022-11-20T07:11:56;99321.84;;;-3.11;60.53
26823;BME280;14852;51.910;8.878;2022-11-20T07:14:22;99328.59;;;-3.07;60.82
26823;BME280;14852;51.910;8.878;2022-11-20T07:16:47;99326.00;;;-2.99;60.43
26823;BME280;14852;51.910;8.878;2022-11-20T07:19:13;99324.31;;;-2.94;60.46
26823;BME280;14852;51.910;8.878;2022-11-20T07:21:39;99329.38;;;-2.93;60.42
26823;BME280;14852;51.910;8.878;2022-11-20T07:24:05;99331.88;;;-2.86;60.27
26823;BME280;14852;51.910;8.878;2022-11-20T07:26:31;99330.97;;;-2.72;60.16
26823;BME280;14852;51.910;8.878;2022-11-20T07:28:56;99324.13;;;-2.61;59.99
26823;BME280;14852;51.910;8.878;2022-11-20T07:31:22;99330.06;;;-2.62;59.68
26823;BME280;14852;51.910;8.878;2022-11-20T07:33:48;99331.75;;;-2.65;60.00
26823;BME280;14852;51.910;8.878;2022-11-20T07:36:14;99330.91;;;-2.64;60.14
26823;BME280;14852;51.910;8.878;2022-11-20T07:38:40;99335.13;;;-2.63;60.26
26823;BME280;14852;51.910;8.878;2022-11-20T07:41:05;99328.34;;;-2.61;60.30
26823;BME280;14852;51.910;8.878;2022-11-20T07:43:31;99327.50;;;-2.57;60.07
26823;BME280;14852;51.910;8.878;2022-11-20T07:45:58;99328.28;;;-2.52;60.13
26823;BME280;14852;51.910;8.878;2022-11-20T07:48:25;99337.59;;;-2.48;60.29
26823;BME280;14852;51.910;8.878;2022-11-20T07:50:57;99340.06;;;-2.39;60.37
26823;BME280;14852;51.910;8.878;2022-11-20T07:53:23;99333.22;;;-2.29;60.11
26823;BME280;14852;51.910;8.878;2022-11-20T07:55:49;99340.75;;;-2.19;60.09
26823;BME280;14852;51.910;8.878;2022-11-20T07:58:18;99337.28;;;-2.07;59.94
26823;BME280;14852;51.910;8.878;2022-11-20T08:00:45;99327.03;;;-1.99;60.08
26823;BME280;14852;51.910;8.878;2022-11-20T08:03:11;99337.13;;;-1.87;59.83
26823;BME280;14852;51.910;8.878;2022-11-20T08:05:37;99331.91;;;-1.75;59.66
26823;BME280;14852;51.910;8.878;2022-11-20T08:08:03;99333.44;;;-1.60;59.43
26823;BME280;14852;51.910;8.878;2022-11-20T08:10:29;99335.75;;;-1.37;59.27
26823;BME280;14852;51.910;8.878;2022-11-20T08:12:58;99337.09;;;-1.04;58.97
26823;BME280;14852;51.910;8.878;2022-11-20T08:15:50;99323.72;;;-0.59;58.60
26823;BME280;14852;51.910;8.878;2022-11-20T08:18:17;99325.66;;;-0.21;58.08
26823;BME280;14852;51.910;8.878;2022-11-20T08:20:43;99328.44;;;0.18;57.57
26823;BME280;14852;51.910;8.878;2022-11-20T08:23:09;99323.63;;;0.47;57.29
26823;BME280;14852;51.910;8.878;2022-11-20T08:25:37;99326.69;;;0.67;57.35
26823;BME280;14852;51.910;8.878;2022-11-20T08:28:09;99328.91;;;0.83;57.56
26823;BME280;14852;51.910;8.878;2022-11-20T08:30:36;99330.50;;;0.90;57.38
26823;BME280;14852;51.910;8.878;2022-11-20T08:33:06;99333.78;;;0.95;57.69
26823;BME280;14852;51.910;8.878;2022-11-20T08:35:37;99326.94;;;0.97;57.80
26823;BME280;14852;51.910;8.878;2022-11-20T08:38:05;99319.25;;;0.97;58.10
26823;BME280;14852;51.910;8.878;2022-11-20T08:40:31;99321.84;;;0.95;58.33
26823;BME280;14852;51.910;8.878;2022-11-20T08:42:57;99322.69;;;0.96;58.57
26823;BME280;14852;51.910;8.878;2022-11-20T08:45:23;99314.13;;;0.97;59.07
26823;BME280;14852;51.910;8.878;2022-11-20T08:47:49;99310.69;;;0.99;58.84
26823;BME280;14852;51.910;8.878;2022-11-20T08:50:16;99302.09;;;1.02;59.22
26823;BME280;14852;51.910;8.878;2022-11-20T08:52:42;99291.78;;;1.05;59.09
26823;BME280;14852;51.910;8.878;2022-11-20T08:55:09;99294.28;;;1.08;59.29
26823;BME280;14852;51.910;8.878;2022-11-20T08:57:36;99295.91;;;1.12;59.06
26823;BME280;14852;51.910;8.878;2022-11-20T09:00:05;99296.66;;;1.16;58.98
26823;BME280;14852;51.910;8.878;2022-11-20T09:02:31;99293.16;;;1.21;59.08
26823;BME280;14852;51.910;8.878;2022-11-20T09:04:58;99295.63;;;1.26;58.96
26823;BME280;14852;51.910;8.878;2022-11-20T09:07:24;99292.03;;;1.33;59.13
26823;BME280;14852;51.910;8.878;2022-11-20T09:09:50;99296.97;;;1.40;59.08
26823;BME280;14852;51.910;8.878;2022-11-20T09:12:15;99295.13;;;1.47;59.17
26823;BME280;14852;51.910;8.878;2022-11-20T09:14:41;99298.31;;;1.57;58.95
26823;BME280;14852;51.910;8.878;2022-11-20T09:17:07;99298.13;;;1.64;59.04
26823;BME280;14852;51.910;8.878;2022-11-20T09:19:33;99300.53;;;1.72;59.13
26823;BME280;14852;51.910;8.878;2022-11-20T09:21:59;99300.38;;;1.78;58.84
26823;BME280;14852;51.910;8.878;2022-11-20T09:24:26;99301.00;;;1.86;58.75
26823;BME280;14852;51.910;8.878;2022-11-20T09:26:53;99316.19;;;1.95;58.86
26823;BME280;14852;51.910;8.878;2022-11-20T09:29:19;99312.47;;;2.07;59.17
26823;BME280;14852;51.910;8.878;2022-11-20T09:31:44;99301.69;;;2.27;58.85
26823;BME280;14852;51.910;8.878;2022-11-20T09:34:10;99302.84;;;2.47;58.59
26823;BME280;14852;51.910;8.878;2022-11-20T09:36:36;99308.78;;;2.80;58.22
26823;BME280;14852;51.910;8.878;2022-11-20T09:39:02;99304.56;;;3.09;58.02
26823;BME280;14852;51.910;8.878;2022-11-20T09:54:22;99298.31;;;5.41;54.55
26823;BME280;14852;51.910;8.878;2022-11-20T09:57:01;99286.50;;;5.57;54.50
26823;BME280;14852;51.910;8.878;2022-11-20T09:59:42;99281.25;;;5.60;54.49
26823;BME280;14852;51.910;8.878;2022-11-20T10:02:42;99280.81;;;5.71;55.05
26823;BME280;14852;51.910;8.878;2022-11-20T10:05:25;99274.16;;;5.43;55.34
26823;BME280;14852;51.910;8.878;2022-11-20T10:08:15;99285.31;;;5.44;55.68
26823;BME280;14852;51.910;8.878;2022-11-20T10:10:50;99273.41;;;5.83;57.03
26823;BME280;14852;51.910;8.878;2022-11-20T10:13:38;99279.94;;;7.11;56.58
26823;BME280;14852;51.910;8.878;2022-11-20T10:16:32;99274.03;;;8.50;54.82
26823;BME280;14852;51.910;8.878;2022-11-20T10:19:27;99261.97;;;9.60;53.71
26823;BME280;14852;51.910;8.878;2022-11-20T10:22:48;99266.31;;;10.35;53.61
26823;BME280;14852;51.910;8.878;2022-11-20T10:25:22;99247.31;;;10.92;52.56
26823;BME280;14852;51.910;8.878;2022-11-20T10:28:23;99241.00;;;10.96;52.16
26823;BME280;14852;51.910;8.878;2022-11-20T10:31:04;99228.09;;;11.21;52.58
26823;BME280;14852;51.910;8.878;2022-11-20T10:33:38;99225.72;;;11.45;52.35
26823;BME280;14852;51.910;8.878;2022-11-20T10:36:24;99227.22;;;11.88;52.27
26823;BME280;14852;51.910;8.878;2022-11-20T10:41:50;99217.47;;;12.17;52.25
26823;BME280;14852;51.910;8.878;2022-11-20T10:44:21;99218.94;;;12.34;51.65
26823;BME280;14852;51.910;8.878;2022-11-20T10:47:17;99218.31;;;12.30;51.89
26823;BME280;14852;51.910;8.878;2022-11-20T10:49:53;99211.03;;;12.23;52.12
26823;BME280;14852;51.910;8.878;2022-11-20T10:53:02;99209.22;;;12.36;52.70
26823;BME280;14852;51.910;8.878;2022-11-20T10:56:16;99196.53;;;12.57;52.97
26823;BME280;14852;51.910;8.878;2022-11-20T10:58:31;99188.31;;;12.87;52.33
26823;BME280;14852;51.910;8.878;2022-11-20T11:01:25;99179.41;;;13.02;52.44
26823;BME280;14852;51.910;8.878;2022-11-20T11:03:54;99173.34;;;13.14;51.68
26823;BME280;14852;51.910;8.878;2022-11-20T11:06:35;99169.47;;;13.07;52.55
26823;BME280;14852;51.910;8.878;2022-11-20T11:09:19;99158.56;;;13.02;52.83
26823;BME280;14852;51.910;8.878;2022-11-20T11:11:48;99166.34;;;12.78;53.22
26823;BME280;14852;51.910;8.878;2022-11-20T11:14:15;99161.59;;;12.47;53.70
26823;BME280;14852;51.910;8.878;2022-11-20T11:16:57;99162.66;;;12.31;54.30
26823;BME280;14852;51.910;8.878;2022-11-20T11:19:23;99166.09;;;12.32;54.71
26823;BME280;14852;51.910;8.878;2022-11-20T11:21:55;99160.69;;;12.10;55.16
26823;BME280;14852;51.910;8.878;2022-11-20T11:24:27;99162.41;;;11.71;55.43
26823;BME280;14852;51.910;8.878;2022-11-20T11:27:12;99156.69;;;11.27;54.42
26823;BME280;14852;51.910;8.878;2022-11-20T11:29:39;99157.03;;;10.67;56.94
26823;BME280;14852;51.910;8.878;2022-11-20T11:32:12;99153.69;;;10.50;57.43
26823;BME280;14852;51.910;8.878;2022-11-20T11:34:39;99151.84;;;10.52;58.54
26823;BME280;14852;51.910;8.878;2022-11-20T11:37:15;99149.00;;;10.43;57.50
26823;BME280;14852;51.910;8.878;2022-11-20T11:39:43;99152.34;;;10.45;58.13
26823;BME280;14852;51.910;8.878;2022-11-20T11:42:16;99148.13;;;10.57;57.25
26823;BME280;14852;51.910;8.878;2022-11-20T11:44:47;99153.00;;;10.48;55.14
26823;BME280;14852;51.910;8.878;2022-11-20T11:47:47;99158.34;;;10.31;54.06
26823;BME280;14852;51.910;8.878;2022-11-20T11:50:16;99159.59;;;9.96;52.65
26823;BME280;14852;51.910;8.878;2022-11-20T11:53:19;99164.44;;;9.58;52.40
26823;BME280;14852;51.910;8.878;2022-11-20T11:55:49;99164.81;;;9.36;52.96
26823;BME280;14852;51.910;8.878;2022-11-20T11:58:48;99154.59;;;9.03;52.33
26823;BME280;14852;51.910;8.878;2022-11-20T12:06:32;99152.63;;;8.28;51.60
26823;BME280;14852;51.910;8.878;2022-11-20T12:09:05;99140.63;;;8.10;51.63
26823;BME280;14852;51.910;8.878;2022-11-20T12:11:52;99142.09;;;7.98;51.42
26823;BME280;14852;51.910;8.878;2022-11-20T12:14:38;99151.25;;;7.88;51.26
26823;BME280;14852;51.910;8.878;2022-11-20T12:17:07;99142.13;;;7.81;51.07
26823;BME280;14852;51.910;8.878;2022-11-20T12:19:34;99151.50;;;7.66;50.84
26823;BME280;14852;51.910;8.878;2022-11-20T12:22:41;99153.41;;;7.45;51.11
26823;BME280;14852;51.910;8.878;2022-11-20T12:25:33;99143.63;;;7.16;51.21
26823;BME280;14852;51.910;8.878;2022-11-20T12:36:32;99134.31;;;6.77;51.18
26823;BME280;14852;51.910;8.878;2022-11-20T12:39:07;99135.00;;;6.62;51.37
26823;BME280;14852;51.910;8.878;2022-11-20T12:48:25;99128.25;;;6.41;51.43
26823;BME280;14852;51.910;8.878;2022-11-20T12:57:21;99118.06;;;6.19;51.86
26823;BME280;14852;51.910;8.878;2022-11-20T13:06:18;99115.44;;;6.00;52.15
26823;BME280;14852;51.910;8.878;2022-11-20T13:08:53;99110.69;;;5.91;51.97
26823;BME280;14852;51.910;8.878;2022-11-20T13:11:37;99108.28;;;5.88;52.32
26823;BME280;14852;51.910;8.878;2022-11-20T13:20:12;99107.16;;;5.53;52.79
26823;BME280;14852;51.910;8.878;2022-11-20T13:22:57;99103.03;;;5.49;53.01
26823;BME280;14852;51.910;8.878;2022-11-20T13:25:35;99102.38;;;5.44;53.15
26823;BME280;14852;51.910;8.878;2022-11-20T13:30:37;99091.56;;;5.36;53.02
26823;BME280;14852;51.910;8.878;2022-11-20T13:33:35;99083.13;;;5.32;53.29
26823;BME280;14852;51.910;8.878;2022-11-20T13:36:25;99078.25;;;5.26;53.46
26823;BME280;14852;51.910;8.878;2022-11-20T13:38:54;99073.47;;;5.17;53.50
26823;BME280;14852;51.910;8.878;2022-11-20T13:41:36;99078.75;;;5.14;53.57
26823;BME280;14852;51.910;8.878;2022-11-20T13:44:36;99069.53;;;5.08;53.46
26823;BME280;14852;51.910;8.878;2022-11-20T13:47:04;99061.16;;;5.03;53.26
26823;BME280;14852;51.910;8.878;2022-11-20T13:49:43;99069.72;;;5.04;53.68
26823;BME280;14852;51.910;8.878;2022-11-20T13:55:42;99063.78;;;5.02;53.46
26823;BME280;14852;51.910;8.878;2022-11-20T14:01:26;99052.19;;;4.92;53.65
26823;BME280;14852;51.910;8.878;2022-11-20T14:03:54;99047.22;;;4.87;53.63
26823;BME280;14852;51.910;8.878;2022-11-20T14:06:31;99045.59;;;4.85;53.71
26823;BME280;14852;51.910;8.878;2022-11-20T14:08:59;99044.19;;;4.78;54.02
26823;BME280;14852;51.910;8.878;2022-11-20T14:11:28;99038.31;;;4.74;53.83
26823;BME280;14852;51.910;8.878;2022-11-20T14:16:38;99043.06;;;4.63;54.22
26823;BME280;14852;51.910;8.878;2022-11-20T14:19:25;99036.31;;;4.60;54.24
26823;BME280;14852;51.910;8.878;2022-11-20T14:22:05;99024.53;;;4.55;54.34
26823;BME280;14852;51.910;8.878;2022-11-20T14:24:31;99028.88;;;4.53;54.19
26823;BME280;14852;51.910;8.878;2022-11-20T14:26:57;99021.22;;;4.51;54.19
26823;BME280;14852;51.910;8.878;2022-11-20T14:29:33;99025.41;;;4.54;54.13
26823;BME280;14852;51.910;8.878;2022-11-20T14:32:01;99022.00;;;4.53;54.07
26823;BME280;14852;51.910;8.878;2022-11-20T14:34:32;99015.13;;;4.54;54.03
26823;BME280;14852;51.910;8.878;2022-11-20T14:37:09;99009.09;;;4.55;54.09
26823;BME280;14852;51.910;8.878;2022-11-20T14:39:40;98993.59;;;4.56;54.06
26823;BME280;14852;51.910;8.878;2022-11-20T14:42:24;98996.91;;;4.60;54.00